sensor_id;sensor_type;location;lat;lon;timestamp;noise_LAeq;noise_LA_min;noise_LA_max;noise_LA01;noise_LA95
57092;Laerm;42968;52.094;4.328;2024-03-25T00:01:25;52.51;37.12;71.87;;
57092;Laerm;42968;52.094;4.328;2024-03-25T00:03:51;53.96;37.70;72.31;;
57092;Laerm;42968;52.094;4.328;2024-03-25T00:06:16;43.89;37.70;55.62;;
57092;Laerm;42968;52.094;4.328;2024-03-25T00:08:41;52.54;37.52;71.11;;
57092;Laerm;42968;52.094;4.328;2024-03-25T00:11:07;54.23;35.94;73.47;;
57092;Laerm;42968;52.094;4.328;2024-03-25T00:13:32;56.96;35.94;73.73;;
57092;Laerm;42968;52.094;4.328;2024-03-25T00:15:57;42.70;35.94;63.99;;
57092;Laerm;42968;52.094;4.328;2024-03-25T00:18:23;57.75;39.08;72.48;;
57092;Laerm;42968;52.094;4.328;2024-03-25T00:20:48;54.03;37.12;70.17;;
57092;Laerm;42968;52.094;4.328;2024-03-25T00:23:13;55.03;36.45;71.90;;
57092;Laerm;42968;52.094;4.328;2024-03-25T00:25:40;40.02;36.20;44.07;;
57092;Laerm;42968;52.094;4.328;2024-03-25T00:28:05;55.34;37.52;71.43;;
57092;Laerm;42968;52.094;4.328;2024-03-25T00:30:30;45.43;36.45;61.64;;
57092;Laerm;42968;52.094;4.328;2024-03-25T00:32:55;61.21;37.70;79.29;;
57092;Laerm;42968;52.094;4.328;2024-03-25T00:35:21;40.41;36.45;44.23;;
57092;Laerm;42968;52.094;4.328;2024-03-25T00:37:46;61.84;35.66;79.84;;
57092;Laerm;42968;52.094;4.328;2024-03-25T00:40:11;53.24;37.88;71.94;;
57092;Laerm;42968;52.094;4.328;2024-03-25T00:42:37;53.73;38.37;69.84;;
57092;Laerm;42968;52.094;4.328;2024-03-25T00:45:02;53.97;37.32;69.61;;
57092;Laerm;42968;52.094;4.328;2024-03-25T00:47:27;53.47;37.12;70.24;;
57092;Laerm;42968;52.094;4.328;2024-03-25T00:49:53;40.43;35.94;47.24;;
57092;Laerm;42968;52.094;4.328;2024-03-25T00:52:18;40.58;37.32;47.59;;
57092;Laerm;42968;52.094;4.328;2024-03-25T00:54:43;44.16;36.91;60.07;;
57092;Laerm;42968;52.094;4.328;2024-03-25T00:57:08;57.51;37.88;74.11;;
57092;Laerm;42968;52.094;4.328;2024-03-25T00:59:33;40.11;36.20;47.26;;
57092;Laerm;42968;52.094;4.328;2024-03-25T01:01:59;39.91;35.94;45.17;;
57092;Laerm;42968;52.094;4.328;2024-03-25T01:04:24;43.37;36.91;58.84;;
57092;Laerm;42968;52.094;4.328;2024-03-25T01:06:49;50.63;38.05;64.58;;
57092;Laerm;42968;52.094;4.328;2024-03-25T01:09:15;51.60;36.91;70.13;;
57092;Laerm;42968;52.094;4.328;2024-03-25T01:11:41;51.69;36.69;68.18;;
57092;Laerm;42968;52.094;4.328;2024-03-25T01:14:06;53.02;36.69;69.99;;
57092;Laerm;42968;52.094;4.328;2024-03-25T01:16:31;54.21;37.52;71.55;;
57092;Laerm;42968;52.094;4.328;2024-03-25T01:18:57;41.78;37.52;48.39;;
57092;Laerm;42968;52.094;4.328;2024-03-25T01:21:23;53.73;36.91;70.07;;
57092;Laerm;42968;52.094;4.328;2024-03-25T01:23:49;58.83;39.81;71.98;;
57092;Laerm;42968;52.094;4.328;2024-03-25T01:26:14;53.86;35.94;72.86;;
57092;Laerm;42968;52.094;4.328;2024-03-25T01:28:40;40.40;36.20;42.41;;
57092;Laerm;42968;52.094;4.328;2024-03-25T01:31:05;40.58;37.12;46.33;;
57092;Laerm;42968;52.094;4.328;2024-03-25T01:33:30;40.35;36.45;43.49;;
57092;Laerm;42968;52.094;4.328;2024-03-25T01:35:55;53.85;37.32;69.65;;
57092;Laerm;42968;52.094;4.328;2024-03-25T01:38:21;40.92;37.12;51.38;;
57092;Laerm;42968;52.094;4.328;2024-03-25T01:40:46;54.31;38.87;70.26;;
57092;Laerm;42968;52.094;4.328;2024-03-25T01:43:11;49.66;37.12;68.87;;
57092;Laerm;42968;52.094;4.328;2024-03-25T01:45:36;40.28;35.94;47.84;;
57092;Laerm;42968;52.094;4.328;2024-03-25T01:48:04;43.52;37.12;59.04;;
57092;Laerm;42968;52.094;4.328;2024-03-25T01:50:31;58.21;38.21;75.57;;
57092;Laerm;42968;52.094;4.328;2024-03-25T01:52:58;41.37;37.32;51.40;;
57092;Laerm;42968;52.094;4.328;2024-03-25T01:55:24;54.58;36.91;70.96;;
57092;Laerm;42968;52.094;4.328;2024-03-25T01:57:51;54.49;37.88;70.33;;
57092;Laerm;42968;52.094;4.328;2024-03-25T02:00:17;56.64;37.88;73.41;;
57092;Laerm;42968;52.094;4.328;2024-03-25T02:02:43;59.69;38.52;73.92;;
57092;Laerm;42968;52.094;4.328;2024-03-25T02:05:12;55.32;34.31;72.16;;
57092;Laerm;42968;52.094;4.328;2024-03-25T02:07:38;42.03;33.90;53.29;;
57092;Laerm;42968;52.094;4.328;2024-03-25T02:10:04;54.84;37.32;72.60;;
57092;Laerm;42968;52.094;4.328;2024-03-25T02:12:30;58.86;40.71;73.04;;
57092;Laerm;42968;52.094;4.328;2024-03-25T02:14:56;61.54;37.88;76.25;;
57092;Laerm;42968;52.094;4.328;2024-03-25T02:17:21;42.44;37.52;52.54;;
57092;Laerm;42968;52.094;4.328;2024-03-25T02:19:46;55.06;37.52;71.09;;
57092;Laerm;42968;52.094;4.328;2024-03-25T02:22:11;52.09;37.12;71.77;;
57092;Laerm;42968;52.094;4.328;2024-03-25T02:24:36;40.59;37.12;51.44;;
57092;Laerm;42968;52.094;4.328;2024-03-25T02:27:03;42.08;36.45;54.37;;
57092;Laerm;42968;52.094;4.328;2024-03-25T02:29:35;52.37;37.70;67.86;;
57092;Laerm;42968;52.094;4.328;2024-03-25T02:32:01;55.02;37.70;71.42;;
57092;Laerm;42968;52.094;4.328;2024-03-25T02:34:26;54.07;36.69;73.54;;
57092;Laerm;42968;52.094;4.328;2024-03-25T02:36:51;60.70;38.21;78.04;;
57092;Laerm;42968;52.094;4.328;2024-03-25T02:39:17;41.66;36.91;50.05;;
57092;Laerm;42968;52.094;4.328;2024-03-25T02:41:43;58.91;36.91;74.15;;
57092;Laerm;42968;52.094;4.328;2024-03-25T02:44:09;41.51;36.69;49.77;;
57092;Laerm;42968;52.094;4.328;2024-03-25T02:46:34;57.62;38.21;75.70;;
57092;Laerm;42968;52.094;4.328;2024-03-25T02:48:59;53.51;37.12;70.22;;
57092;Laerm;42968;52.094;4.328;2024-03-25T02:51:25;41.93;36.45;54.89;;
57092;Laerm;42968;52.094;4.328;2024-03-25T02:53:50;55.98;36.91;74.28;;
57092;Laerm;42968;52.094;4.328;2024-03-25T02:56:16;42.86;36.91;53.96;;
57092;Laerm;42968;52.094;4.328;2024-03-25T02:58:41;42.56;36.45;55.67;;
57092;Laerm;42968;52.094;4.328;2024-03-25T03:01:06;53.82;36.45;69.33;;
57092;Laerm;42968;52.094;4.328;2024-03-25T03:03:33;44.31;36.69;59.08;;
57092;Laerm;42968;52.094;4.328;2024-03-25T03:05:58;57.30;37.70;74.27;;
57092;Laerm;42968;52.094;4.328;2024-03-25T03:08:23;40.76;37.32;44.73;;
57092;Laerm;42968;52.094;4.328;2024-03-25T03:10:48;40.35;37.12;44.58;;
57092;Laerm;42968;52.094;4.328;2024-03-25T03:13:13;49.97;37.70;69.60;;
57092;Laerm;42968;52.094;4.328;2024-03-25T03:15:43;53.26;36.91;65.49;;
57092;Laerm;42968;52.094;4.328;2024-03-25T03:18:08;41.29;36.69;51.57;;
57092;Laerm;42968;52.094;4.328;2024-03-25T03:20:33;41.28;37.17;51.00;;
57092;Laerm;42968;52.094;4.328;2024-03-25T03:22:58;60.67;37.88;79.12;;
57092;Laerm;42968;52.094;4.328;2024-03-25T03:25:24;59.53;39.08;76.02;;
57092;Laerm;42968;52.094;4.328;2024-03-25T03:27:49;52.61;36.91;68.27;;
57092;Laerm;42968;52.094;4.328;2024-03-25T03:30:14;42.38;37.12;53.01;;
57092;Laerm;42968;52.094;4.328;2024-03-25T03:32:40;58.58;38.37;73.93;;
57092;Laerm;42968;52.094;4.328;2024-03-25T03:35:05;42.65;37.52;53.14;;
57092;Laerm;42968;52.094;4.328;2024-03-25T03:37:30;42.20;38.21;51.59;;
57092;Laerm;42968;52.094;4.328;2024-03-25T03:39:56;56.77;38.37;70.18;;
57092;Laerm;42968;52.094;4.328;2024-03-25T03:42:21;54.28;37.88;74.76;;
57092;Laerm;42968;52.094;4.328;2024-03-25T03:44:46;51.11;37.70;71.21;;
57092;Laerm;42968;52.094;4.328;2024-03-25T03:47:11;59.29;38.67;73.48;;
57092;Laerm;42968;52.094;4.328;2024-03-25T03:49:36;53.73;38.02;70.49;;
57092;Laerm;42968;52.094;4.328;2024-03-25T03:52:02;47.96;38.21;59.86;;
57092;Laerm;42968;52.094;4.328;2024-03-25T03:54:28;57.12;38.67;75.38;;
57092;Laerm;42968;52.094;4.328;2024-03-25T03:56:53;63.27;40.08;77.92;;
57092;Laerm;42968;52.094;4.328;2024-03-25T03:59:18;54.25;39.34;70.65;;
57092;Laerm;42968;52.094;4.328;2024-03-25T04:01:43;58.76;39.34;72.78;;
57092;Laerm;42968;52.094;4.328;2024-03-25T04:04:09;55.22;40.33;71.64;;
57092;Laerm;42968;52.094;4.328;2024-03-25T04:06:35;59.65;40.13;73.27;;
57092;Laerm;42968;52.094;4.328;2024-03-25T04:09:00;65.25;43.58;81.21;;
57092;Laerm;42968;52.094;4.328;2024-03-25T04:11:25;61.14;42.22;76.81;;
57092;Laerm;42968;52.094;4.328;2024-03-25T04:13:51;64.21;47.90;76.79;;
57092;Laerm;42968;52.094;4.328;2024-03-25T04:16:16;64.12;44.43;76.49;;
57092;Laerm;42968;52.094;4.328;2024-03-25T04:18:42;62.16;40.98;75.43;;
57092;Laerm;42968;52.094;4.328;2024-03-25T04:21:11;62.79;45.36;75.02;;
57092;Laerm;42968;52.094;4.328;2024-03-25T04:23:36;66.46;47.54;78.11;;
57092;Laerm;42968;52.094;4.328;2024-03-25T04:26:01;64.89;47.86;78.24;;
57092;Laerm;42968;52.094;4.328;2024-03-25T04:28:27;63.39;45.45;74.97;;
57092;Laerm;42968;52.094;4.328;2024-03-25T04:30:52;62.92;43.49;80.34;;
57092;Laerm;42968;52.094;4.328;2024-03-25T04:33:18;64.73;42.03;81.28;;
57092;Laerm;42968;52.094;4.328;2024-03-25T04:35:44;66.05;45.94;77.89;;
57092;Laerm;42968;52.094;4.328;2024-03-25T04:38:09;64.23;44.94;81.30;;
57092;Laerm;42968;52.094;4.328;2024-03-25T04:40:35;67.70;48.52;80.61;;
57092;Laerm;42968;52.094;4.328;2024-03-25T04:43:00;65.26;49.27;78.53;;
57092;Laerm;42968;52.094;4.328;2024-03-25T04:45:25;65.56;45.72;79.37;;
57092;Laerm;42968;52.094;4.328;2024-03-25T04:47:50;63.46;47.55;75.15;;
57092;Laerm;42968;52.094;4.328;2024-03-25T04:50:15;67.47;47.28;79.10;;
57092;Laerm;42968;52.094;4.328;2024-03-25T04:52:41;67.27;53.05;77.58;;
57092;Laerm;42968;52.094;4.328;2024-03-25T04:55:06;64.74;47.59;80.09;;
57092;Laerm;42968;52.094;4.328;2024-03-25T04:57:31;67.04;49.82;79.06;;
57092;Laerm;42968;52.094;4.328;2024-03-25T04:59:56;67.97;50.30;80.30;;
57092;Laerm;42968;52.094;4.328;2024-03-25T05:02:23;65.90;46.35;81.59;;
57092;Laerm;42968;52.094;4.328;2024-03-25T05:04:48;67.63;49.98;77.85;;
57092;Laerm;42968;52.094;4.328;2024-03-25T05:07:13;62.95;43.58;76.24;;
57092;Laerm;42968;52.094;4.328;2024-03-25T05:09:39;65.76;49.55;78.07;;
57092;Laerm;42968;52.094;4.328;2024-03-25T05:12:04;68.12;51.06;82.99;;
57092;Laerm;42968;52.094;4.328;2024-03-25T05:14:30;64.62;45.48;73.36;;
57092;Laerm;42968;52.094;4.328;2024-03-25T05:16:55;69.25;49.91;78.63;;
57092;Laerm;42968;52.094;4.328;2024-03-25T05:19:21;66.82;50.44;77.24;;
57092;Laerm;42968;52.094;4.328;2024-03-25T05:21:46;67.46;52.38;79.02;;
57092;Laerm;42968;52.094;4.328;2024-03-25T05:24:12;69.60;48.32;78.07;;
57092;Laerm;42968;52.094;4.328;2024-03-25T05:26:37;68.63;49.66;78.65;;
57092;Laerm;42968;52.094;4.328;2024-03-25T05:29:02;67.37;49.27;75.86;;
57092;Laerm;42968;52.094;4.328;2024-03-25T05:31:27;70.20;49.99;84.43;;
57092;Laerm;42968;52.094;4.328;2024-03-25T05:33:53;71.10;49.49;85.14;;
57092;Laerm;42968;52.094;4.328;2024-03-25T05:36:18;69.07;55.20;78.10;;
57092;Laerm;42968;52.094;4.328;2024-03-25T05:38:43;69.30;52.67;78.73;;
57092;Laerm;42968;52.094;4.328;2024-03-25T05:41:08;71.38;55.94;80.44;;
57092;Laerm;42968;52.094;4.328;2024-03-25T05:43:34;72.22;50.37;82.78;;
57092;Laerm;42968;52.094;4.328;2024-03-25T05:45:59;69.93;53.17;79.08;;
57092;Laerm;42968;52.094;4.328;2024-03-25T05:48:25;70.86;57.08;79.20;;
57092;Laerm;42968;52.094;4.328;2024-03-25T05:51:03;70.09;48.70;81.98;;
57092;Laerm;42968;52.094;4.328;2024-03-25T05:53:32;71.88;50.15;79.42;;
57092;Laerm;42968;52.094;4.328;2024-03-25T05:55:58;71.08;54.82;80.62;;
57092;Laerm;42968;52.094;4.328;2024-03-25T05:58:25;71.04;52.80;79.07;;
57092;Laerm;42968;52.094;4.328;2024-03-25T06:00:51;72.37;53.30;85.16;;
57092;Laerm;42968;52.094;4.328;2024-03-25T06:03:18;71.61;53.52;81.40;;
57092;Laerm;42968;52.094;4.328;2024-03-25T06:05:43;71.54;52.19;87.04;;
57092;Laerm;42968;52.094;4.328;2024-03-25T06:08:08;70.75;59.47;79.05;;
57092;Laerm;42968;52.094;4.328;2024-03-25T06:10:43;69.34;51.15;79.34;;
57092;Laerm;42968;52.094;4.328;2024-03-25T06:13:08;70.76;54.42;80.01;;
57092;Laerm;42968;52.094;4.328;2024-03-25T06:15:33;70.52;58.02;79.24;;
57092;Laerm;42968;52.094;4.328;2024-03-25T06:17:58;71.29;55.96;78.74;;
57092;Laerm;42968;52.094;4.328;2024-03-25T06:20:24;69.76;51.66;79.10;;
57092;Laerm;42968;52.094;4.328;2024-03-25T06:22:49;71.96;49.43;81.13;;
57092;Laerm;42968;52.094;4.328;2024-03-25T06:25:15;70.54;49.12;80.01;;
57092;Laerm;42968;52.094;4.328;2024-03-25T06:27:41;70.79;52.10;78.53;;
57092;Laerm;42968;52.094;4.328;2024-03-25T06:30:07;83.09;54.90;106.47;;
57092;Laerm;42968;52.094;4.328;2024-03-25T06:32:51;73.23;60.53;83.92;;
57092;Laerm;42968;52.094;4.328;2024-03-25T06:35:35;71.43;55.15;81.72;;
57092;Laerm;42968;52.094;4.328;2024-03-25T06:38:01;73.39;58.55;81.98;;
57092;Laerm;42968;52.094;4.328;2024-03-25T06:40:26;70.38;53.01;79.18;;
57092;Laerm;42968;52.094;4.328;2024-03-25T06:42:51;71.88;56.28;79.31;;
57092;Laerm;42968;52.094;4.328;2024-03-25T06:45:16;70.61;55.38;78.21;;
57092;Laerm;42968;52.094;4.328;2024-03-25T06:47:42;71.63;54.69;85.48;;
57092;Laerm;42968;52.094;4.328;2024-03-25T06:50:07;70.41;57.14;85.42;;
57092;Laerm;42968;52.094;4.328;2024-03-25T06:52:33;72.54;49.87;79.82;;
57092;Laerm;42968;52.094;4.328;2024-03-25T06:54:58;70.50;56.47;78.12;;
57092;Laerm;42968;52.094;4.328;2024-03-25T06:57:24;70.23;59.84;82.31;;
57092;Laerm;42968;52.094;4.328;2024-03-25T06:59:49;71.21;57.30;81.06;;
57092;Laerm;42968;52.094;4.328;2024-03-25T07:02:14;70.64;56.62;80.92;;
57092;Laerm;42968;52.094;4.328;2024-03-25T07:04:40;71.60;55.04;80.16;;
57092;Laerm;42968;52.094;4.328;2024-03-25T07:07:05;71.30;54.83;82.31;;
57092;Laerm;42968;52.094;4.328;2024-03-25T07:09:30;73.33;56.26;81.03;;
57092;Laerm;42968;52.094;4.328;2024-03-25T07:11:55;72.10;53.97;80.11;;
57092;Laerm;42968;52.094;4.328;2024-03-25T07:14:20;72.30;59.36;79.23;;
57092;Laerm;42968;52.094;4.328;2024-03-25T07:16:46;70.75;52.33;80.79;;
57092;Laerm;42968;52.094;4.328;2024-03-25T07:19:11;72.10;58.10;87.84;;
57092;Laerm;42968;52.094;4.328;2024-03-25T07:21:36;71.34;53.10;81.90;;
57092;Laerm;42968;52.094;4.328;2024-03-25T07:24:01;70.83;55.44;81.11;;
57092;Laerm;42968;52.094;4.328;2024-03-25T07:26:26;70.48;59.54;91.04;;
57092;Laerm;42968;52.094;4.328;2024-03-25T07:28:52;72.32;60.28;80.82;;
57092;Laerm;42968;52.094;4.328;2024-03-25T07:31:17;70.76;61.54;82.07;;
57092;Laerm;42968;52.094;4.328;2024-03-25T07:33:42;72.04;63.26;82.83;;
57092;Laerm;42968;52.094;4.328;2024-03-25T07:36:07;71.41;59.00;78.53;;
57092;Laerm;42968;52.094;4.328;2024-03-25T07:38:33;72.35;58.92;85.23;;
57092;Laerm;42968;52.094;4.328;2024-03-25T07:41:02;70.18;56.85;80.01;;
57092;Laerm;42968;52.094;4.328;2024-03-25T07:43:27;69.78;57.83;79.38;;
57092;Laerm;42968;52.094;4.328;2024-03-25T07:45:53;70.57;60.44;79.10;;
57092;Laerm;42968;52.094;4.328;2024-03-25T07:48:18;70.78;55.97;78.23;;
57092;Laerm;42968;52.094;4.328;2024-03-25T07:50:44;70.27;58.10;79.11;;
57092;Laerm;42968;52.094;4.328;2024-03-25T07:53:09;71.55;58.06;81.24;;
57092;Laerm;42968;52.094;4.328;2024-03-25T07:55:34;71.65;55.37;83.78;;
57092;Laerm;42968;52.094;4.328;2024-03-25T07:58:00;72.15;56.93;80.72;;
57092;Laerm;42968;52.094;4.328;2024-03-25T08:00:25;70.84;55.76;79.85;;
57092;Laerm;42968;52.094;4.328;2024-03-25T08:02:50;69.72;55.33;78.20;;
57092;Laerm;42968;52.094;4.328;2024-03-25T08:05:15;72.77;57.45;81.98;;
57092;Laerm;42968;52.094;4.328;2024-03-25T08:07:41;70.77;57.43;77.84;;
57092;Laerm;42968;52.094;4.328;2024-03-25T08:10:06;70.44;56.39;77.83;;
57092;Laerm;42968;52.094;4.328;2024-03-25T08:12:31;70.79;52.04;77.80;;
57092;Laerm;42968;52.094;4.328;2024-03-25T08:14:56;73.65;66.84;85.34;;
57092;Laerm;42968;52.094;4.328;2024-03-25T08:17:22;71.43;57.79;82.78;;
57092;Laerm;42968;52.094;4.328;2024-03-25T08:19:47;71.81;49.91;79.95;;
57092;Laerm;42968;52.094;4.328;2024-03-25T08:22:12;72.05;51.44;79.91;;
57092;Laerm;42968;52.094;4.328;2024-03-25T08:24:37;71.78;48.49;82.83;;
57092;Laerm;42968;52.094;4.328;2024-03-25T08:27:03;72.34;50.22;90.17;;
57092;Laerm;42968;52.094;4.328;2024-03-25T08:29:28;71.58;51.17;81.82;;
57092;Laerm;42968;52.094;4.328;2024-03-25T08:31:53;70.92;58.09;78.13;;
57092;Laerm;42968;52.094;4.328;2024-03-25T08:34:19;69.40;50.15;77.22;;
57092;Laerm;42968;52.094;4.328;2024-03-25T08:36:44;72.48;55.78;91.58;;
57092;Laerm;42968;52.094;4.328;2024-03-25T08:39:10;70.56;54.36;80.82;;
57092;Laerm;42968;52.094;4.328;2024-03-25T08:41:35;70.98;49.79;80.25;;
57092;Laerm;42968;52.094;4.328;2024-03-25T08:44:00;70.28;51.08;78.31;;
57092;Laerm;42968;52.094;4.328;2024-03-25T08:46:25;70.11;55.43;80.16;;
57092;Laerm;42968;52.094;4.328;2024-03-25T08:48:51;70.11;55.84;79.30;;
57092;Laerm;42968;52.094;4.328;2024-03-25T08:51:17;69.89;50.24;81.06;;
57092;Laerm;42968;52.094;4.328;2024-03-25T08:53:42;70.79;48.05;79.84;;
57092;Laerm;42968;52.094;4.328;2024-03-25T08:56:07;71.28;49.89;79.15;;
57092;Laerm;42968;52.094;4.328;2024-03-25T08:58:33;69.97;54.76;78.08;;
57092;Laerm;42968;52.094;4.328;2024-03-25T09:00:58;70.43;50.01;78.90;;
57092;Laerm;42968;52.094;4.328;2024-03-25T09:03:23;67.47;55.19;77.81;;
57092;Laerm;42968;52.094;4.328;2024-03-25T09:05:48;69.34;49.63;77.09;;
57092;Laerm;42968;52.094;4.328;2024-03-25T09:08:14;69.89;53.59;82.21;;
57092;Laerm;42968;52.094;4.328;2024-03-25T09:10:39;70.15;56.49;79.22;;
57092;Laerm;42968;52.094;4.328;2024-03-25T09:13:23;69.09;49.57;80.87;;
57092;Laerm;42968;52.094;4.328;2024-03-25T09:15:48;70.44;54.94;78.62;;
57092;Laerm;42968;52.094;4.328;2024-03-25T09:18:13;70.84;59.82;81.61;;
57092;Laerm;42968;52.094;4.328;2024-03-25T09:20:39;70.07;51.56;80.28;;
57092;Laerm;42968;52.094;4.328;2024-03-25T09:23:04;68.43;50.06;77.01;;
57092;Laerm;42968;52.094;4.328;2024-03-25T09:25:29;70.19;55.84;79.39;;
57092;Laerm;42968;52.094;4.328;2024-03-25T09:27:54;71.03;50.11;85.45;;
57092;Laerm;42968;52.094;4.328;2024-03-25T09:30:20;70.49;49.36;82.97;;
57092;Laerm;42968;52.094;4.328;2024-03-25T09:32:45;70.02;47.30;81.30;;
57092;Laerm;42968;52.094;4.328;2024-03-25T09:35:10;68.81;52.62;79.41;;
57092;Laerm;42968;52.094;4.328;2024-03-25T09:37:36;68.21;54.92;76.54;;
57092;Laerm;42968;52.094;4.328;2024-03-25T09:40:01;69.17;57.88;78.12;;
57092;Laerm;42968;52.094;4.328;2024-03-25T09:42:28;69.80;55.54;78.14;;
57092;Laerm;42968;52.094;4.328;2024-03-25T09:44:53;69.31;49.56;78.51;;
57092;Laerm;42968;52.094;4.328;2024-03-25T09:47:19;68.82;48.78;77.36;;
57092;Laerm;42968;52.094;4.328;2024-03-25T09:49:44;70.12;55.81;78.80;;
57092;Laerm;42968;52.094;4.328;2024-03-25T09:52:10;69.37;49.96;78.83;;
57092;Laerm;42968;52.094;4.328;2024-03-25T09:54:36;69.85;53.72;81.02;;
57092;Laerm;42968;52.094;4.328;2024-03-25T09:57:01;68.33;44.90;77.18;;
57092;Laerm;42968;52.094;4.328;2024-03-25T09:59:28;70.29;53.08;77.30;;
57092;Laerm;42968;52.094;4.328;2024-03-25T10:01:54;69.67;49.02;77.72;;
57092;Laerm;42968;52.094;4.328;2024-03-25T10:04:19;68.90;48.94;77.99;;
57092;Laerm;42968;52.094;4.328;2024-03-25T10:06:45;72.02;57.24;85.42;;
57092;Laerm;42968;52.094;4.328;2024-03-25T10:09:10;70.85;52.74;79.91;;
57092;Laerm;42968;52.094;4.328;2024-03-25T10:11:35;69.05;51.97;80.17;;
57092;Laerm;42968;52.094;4.328;2024-03-25T10:14:01;70.58;55.81;79.20;;
57092;Laerm;42968;52.094;4.328;2024-03-25T10:16:26;70.02;55.37;78.64;;
57092;Laerm;42968;52.094;4.328;2024-03-25T10:18:52;69.19;52.07;77.71;;
57092;Laerm;42968;52.094;4.328;2024-03-25T10:21:19;71.05;55.91;82.92;;
57092;Laerm;42968;52.094;4.328;2024-03-25T10:23:44;69.66;50.84;79.14;;
57092;Laerm;42968;52.094;4.328;2024-03-25T10:26:09;70.08;51.60;78.98;;
57092;Laerm;42968;52.094;4.328;2024-03-25T10:28:35;70.17;51.98;79.93;;
57092;Laerm;42968;52.094;4.328;2024-03-25T10:31:03;70.47;50.27;81.25;;
57092;Laerm;42968;52.094;4.328;2024-03-25T10:33:29;70.15;45.97;78.68;;
57092;Laerm;42968;52.094;4.328;2024-03-25T10:35:54;68.79;47.30;77.95;;
57092;Laerm;42968;52.094;4.328;2024-03-25T10:38:21;68.65;46.71;78.61;;
57092;Laerm;42968;52.094;4.328;2024-03-25T10:40:49;69.43;44.51;80.93;;
57092;Laerm;42968;52.094;4.328;2024-03-25T10:43:17;69.89;56.26;78.14;;
57092;Laerm;42968;52.094;4.328;2024-03-25T10:45:46;68.62;44.27;76.84;;
57092;Laerm;42968;52.094;4.328;2024-03-25T10:50:38;70.49;50.11;85.61;;
57092;Laerm;42968;52.094;4.328;2024-03-25T10:53:04;69.28;53.57;79.88;;
57092;Laerm;42968;52.094;4.328;2024-03-25T10:55:30;69.34;49.30;77.02;;
57092;Laerm;42968;52.094;4.328;2024-03-25T10:57:56;69.28;50.13;78.03;;
57092;Laerm;42968;52.094;4.328;2024-03-25T11:00:22;70.05;45.51;85.38;;
57092;Laerm;42968;52.094;4.328;2024-03-25T11:02:47;68.97;52.57;82.59;;
57092;Laerm;42968;52.094;4.328;2024-03-25T11:05:13;69.23;54.02;78.26;;
57092;Laerm;42968;52.094;4.328;2024-03-25T11:07:40;70.58;48.67;90.40;;
57092;Laerm;42968;52.094;4.328;2024-03-25T11:10:06;68.98;50.72;79.20;;
57092;Laerm;42968;52.094;4.328;2024-03-25T11:12:34;68.78;54.56;77.34;;
57092;Laerm;42968;52.094;4.328;2024-03-25T11:15:03;68.17;51.32;77.19;;
57092;Laerm;42968;52.094;4.328;2024-03-25T11:17:29;67.96;53.93;76.22;;
57092;Laerm;42968;52.094;4.328;2024-03-25T11:20:05;71.80;49.57;98.36;;
57092;Laerm;42968;52.094;4.328;2024-03-25T11:22:31;69.21;50.33;80.00;;
57092;Laerm;42968;52.094;4.328;2024-03-25T11:24:57;69.66;50.44;92.84;;
57092;Laerm;42968;52.094;4.328;2024-03-25T11:27:31;69.74;54.90;80.05;;
57092;Laerm;42968;52.094;4.328;2024-03-25T11:29:56;70.49;52.92;80.84;;
57092;Laerm;42968;52.094;4.328;2024-03-25T11:32:21;69.81;54.33;83.80;;
57092;Laerm;42968;52.094;4.328;2024-03-25T11:34:50;69.39;49.36;79.73;;
57092;Laerm;42968;52.094;4.328;2024-03-25T11:37:15;68.70;52.68;78.56;;
57092;Laerm;42968;52.094;4.328;2024-03-25T11:39:41;69.27;48.43;77.27;;
57092;Laerm;42968;52.094;4.328;2024-03-25T11:42:07;68.47;45.23;76.53;;
57092;Laerm;42968;52.094;4.328;2024-03-25T11:44:34;69.45;49.60;79.46;;
57092;Laerm;42968;52.094;4.328;2024-03-25T11:47:00;70.05;45.30;83.68;;
57092;Laerm;42968;52.094;4.328;2024-03-25T11:49:26;70.04;50.73;79.01;;
57092;Laerm;42968;52.094;4.328;2024-03-25T11:51:52;69.22;50.68;78.70;;
57092;Laerm;42968;52.094;4.328;2024-03-25T11:54:17;68.57;47.63;79.38;;
57092;Laerm;42968;52.094;4.328;2024-03-25T11:56:44;70.58;45.42;88.47;;
57092;Laerm;42968;52.094;4.328;2024-03-25T11:59:10;68.15;48.46;75.12;;
57092;Laerm;42968;52.094;4.328;2024-03-25T12:01:37;69.64;43.81;80.42;;
57092;Laerm;42968;52.094;4.328;2024-03-25T12:04:15;69.55;51.73;78.78;;
57092;Laerm;42968;52.094;4.328;2024-03-25T12:06:41;68.13;48.45;77.69;;
57092;Laerm;42968;52.094;4.328;2024-03-25T12:09:06;69.03;49.80;78.52;;
57092;Laerm;42968;52.094;4.328;2024-03-25T12:11:50;68.11;49.83;78.54;;
57092;Laerm;42968;52.094;4.328;2024-03-25T12:14:16;70.45;50.48;81.65;;
57092;Laerm;42968;52.094;4.328;2024-03-25T12:16:42;67.52;45.69;79.62;;
57092;Laerm;42968;52.094;4.328;2024-03-25T12:19:07;69.15;51.39;81.75;;
57092;Laerm;42968;52.094;4.328;2024-03-25T12:21:32;68.01;46.87;75.01;;
57092;Laerm;42968;52.094;4.328;2024-03-25T12:23:57;67.53;49.79;76.16;;
57092;Laerm;42968;52.094;4.328;2024-03-25T12:26:24;69.79;49.75;85.55;;
57092;Laerm;42968;52.094;4.328;2024-03-25T12:28:49;69.81;49.79;80.44;;
57092;Laerm;42968;52.094;4.328;2024-03-25T12:31:14;68.04;50.71;77.96;;
57092;Laerm;42968;52.094;4.328;2024-03-25T12:33:41;67.74;51.76;76.34;;
57092;Laerm;42968;52.094;4.328;2024-03-25T12:36:07;70.02;50.27;79.30;;
57092;Laerm;42968;52.094;4.328;2024-03-25T12:38:33;68.12;55.38;78.30;;
57092;Laerm;42968;52.094;4.328;2024-03-25T12:43:33;69.61;54.02;79.93;;
57092;Laerm;42968;52.094;4.328;2024-03-25T12:45:59;70.03;53.49;85.72;;
57092;Laerm;42968;52.094;4.328;2024-03-25T12:48:24;68.87;46.50;76.60;;
57092;Laerm;42968;52.094;4.328;2024-03-25T12:50:50;68.75;48.76;78.31;;
57092;Laerm;42968;52.094;4.328;2024-03-25T12:53:16;68.57;53.15;77.95;;
57092;Laerm;42968;52.094;4.328;2024-03-25T12:55:42;68.59;55.03;77.39;;
57092;Laerm;42968;52.094;4.328;2024-03-25T12:58:07;68.54;51.02;78.64;;
57092;Laerm;42968;52.094;4.328;2024-03-25T13:00:33;68.71;54.09;80.21;;
57092;Laerm;42968;52.094;4.328;2024-03-25T13:02:58;67.80;49.00;74.88;;
57092;Laerm;42968;52.094;4.328;2024-03-25T13:05:23;69.60;50.13;77.91;;
57092;Laerm;42968;52.094;4.328;2024-03-25T13:07:48;71.12;51.40;88.16;;
57092;Laerm;42968;52.094;4.328;2024-03-25T13:10:14;68.17;47.12;80.75;;
57092;Laerm;42968;52.094;4.328;2024-03-25T13:12:39;68.71;50.29;78.49;;
57092;Laerm;42968;52.094;4.328;2024-03-25T13:15:04;69.35;49.36;79.63;;
57092;Laerm;42968;52.094;4.328;2024-03-25T13:17:30;68.39;48.74;77.66;;
57092;Laerm;42968;52.094;4.328;2024-03-25T13:19:55;68.68;52.06;77.40;;
57092;Laerm;42968;52.094;4.328;2024-03-25T13:22:20;70.23;51.33;80.78;;
57092;Laerm;42968;52.094;4.328;2024-03-25T13:24:45;69.41;55.73;78.26;;
57092;Laerm;42968;52.094;4.328;2024-03-25T13:27:11;68.81;47.65;77.47;;
57092;Laerm;42968;52.094;4.328;2024-03-25T13:29:36;67.98;51.20;77.70;;
57092;Laerm;42968;52.094;4.328;2024-03-25T13:32:02;70.20;57.65;83.97;;
57092;Laerm;42968;52.094;4.328;2024-03-25T13:34:27;67.39;47.12;76.62;;
57092;Laerm;42968;52.094;4.328;2024-03-25T13:36:53;69.43;54.51;76.00;;
57092;Laerm;42968;52.094;4.328;2024-03-25T13:39:18;67.90;47.91;76.49;;
57092;Laerm;42968;52.094;4.328;2024-03-25T13:41:43;69.34;54.31;80.04;;